sensor_id;sensor_type;location;lat;lon;timestamp;P1;durP1;ratioP1;P2;durP2;ratioP2
2710;SDS011;20721;47.402;8.550;2022-09-09T00:00:21;3.11;;;3.11;;
2710;SDS011;20721;47.402;8.550;2022-09-09T00:03:23;3.33;;;3.33;;
2710;SDS011;20721;47.402;8.550;2022-09-09T00:04:25;3.00;;;3.00;;
2710;SDS011;20721;47.402;8.550;2022-09-09T00:05:17;3.72;;;3.72;;
2710;SDS011;20721;47.402;8.550;2022-09-09T00:08:18;4.07;;;4.07;;
2710;SDS011;20721;47.402;8.550;2022-09-09T00:14:23;3.16;;;3.16;;
2710;SDS011;20721;47.402;8.550;2022-09-09T00:15:19;3.44;;;3.44;;
2710;SDS011;20721;47.402;8.550;2022-09-09T00:17:31;3.28;;;3.28;;
2710;SDS011;20721;47.402;8.550;2022-09-09T00:20:20;3.48;;;3.48;;
2710;SDS011;20721;47.402;8.550;2022-09-09T00:21:16;3.43;;;3.43;;
2710;SDS011;20721;47.402;8.550;2022-09-09T00:22:23;3.30;;;3.30;;
2710;SDS011;20721;47.402;8.550;2022-09-09T00:23:35;3.84;;;3.84;;
2710;SDS011;20721;47.402;8.550;2022-09-09T00:24:30;4.24;;;4.24;;
2710;SDS011;20721;47.402;8.550;2022-09-09T00:25:28;3.95;;;3.95;;
2710;SDS011;20721;47.402;8.550;2022-09-09T00:28:25;3.85;;;3.85;;
2710;SDS011;20721;47.402;8.550;2022-09-09T00:29:28;4.01;;;4.01;;
2710;SDS011;20721;47.402;8.550;2022-09-09T00:30:26;3.39;;;3.39;;
2710;SDS011;20721;47.402;8.550;2022-09-09T00:31:25;4.02;;;4.02;;
2710;SDS011;20721;47.402;8.550;2022-09-09T00:32:24;3.61;;;3.61;;
2710;SDS011;20721;47.402;8.550;2022-09-09T00:33:22;3.62;;;3.62;;
2710;SDS011;20721;47.402;8.550;2022-09-09T00:34:21;3.63;;;3.63;;
2710;SDS011;20721;47.402;8.550;2022-09-09T00:35:38;3.82;;;3.82;;
2710;SDS011;20721;47.402;8.550;2022-09-09T00:36:20;3.87;;;3.87;;
2710;SDS011;20721;47.402;8.550;2022-09-09T00:37:13;3.47;;;3.47;;
2710;SDS011;20721;47.402;8.550;2022-09-09T00:40:24;3.87;;;3.87;;
2710;SDS011;20721;47.402;8.550;2022-09-09T00:54:26;3.50;;;3.50;;
2710;SDS011;20721;47.402;8.550;2022-09-09T00:58:16;3.17;;;3.17;;
2710;SDS011;20721;47.402;8.550;2022-09-09T01:00:27;3.36;;;3.36;;
2710;SDS011;20721;47.402;8.550;2022-09-09T01:01:21;2.98;;;2.98;;
2710;SDS011;20721;47.402;8.550;2022-09-09T01:02:25;3.14;;;3.14;;
2710;SDS011;20721;47.402;8.550;2022-09-09T01:03:21;3.58;;;3.58;;
2710;SDS011;20721;47.402;8.550;2022-09-09T01:04:22;3.87;;;3.87;;
2710;SDS011;20721;47.402;8.550;2022-09-09T01:05:20;3.62;;;3.62;;
2710;SDS011;20721;47.402;8.550;2022-09-09T01:06:29;3.25;;;3.25;;
2710;SDS011;20721;47.402;8.550;2022-09-09T01:07:25;4.09;;;4.09;;
2710;SDS011;20721;47.402;8.550;2022-09-09T01:08:28;3.49;;;3.49;;
2710;SDS011;20721;47.402;8.550;2022-09-09T01:09:22;3.92;;;3.92;;
2710;SDS011;20721;47.402;8.550;2022-09-09T01:10:24;3.77;;;3.77;;
2710;SDS011;20721;47.402;8.550;2022-09-09T01:11:20;3.94;;;3.94;;
2710;SDS011;20721;47.402;8.550;2022-09-09T01:12:29;3.91;;;3.90;;
2710;SDS011;20721;47.402;8.550;2022-09-09T01:13:34;4.32;;;4.30;;
2710;SDS011;20721;47.402;8.550;2022-09-09T01:16:14;4.14;;;4.12;;
2710;SDS011;20721;47.402;8.550;2022-09-09T01:17:26;4.45;;;4.44;;
2710;SDS011;20721;47.402;8.550;2022-09-09T01:19:19;4.07;;;4.07;;
2710;SDS011;20721;47.402;8.550;2022-09-09T01:20:26;4.58;;;4.57;;
2710;SDS011;20721;47.402;8.550;2022-09-09T01:21:30;3.91;;;3.90;;
2710;SDS011;20721;47.402;8.550;2022-09-09T01:22:41;4.13;;;4.09;;
2710;SDS011;20721;47.402;8.550;2022-09-09T01:27:15;4.32;;;4.32;;
2710;SDS011;20721;47.402;8.550;2022-09-09T01:29:17;3.89;;;3.89;;
2710;SDS011;20721;47.402;8.550;2022-09-09T01:30:18;3.75;;;3.75;;
2710;SDS011;20721;47.402;8.550;2022-09-09T01:31:17;3.97;;;3.97;;
2710;SDS011;20721;47.402;8.550;2022-09-09T01:33:15;3.71;;;3.70;;
2710;SDS011;20721;47.402;8.550;2022-09-09T01:34:19;3.13;;;3.11;;
2710;SDS011;20721;47.402;8.550;2022-09-09T01:35:19;4.09;;;4.08;;
2710;SDS011;20721;47.402;8.550;2022-09-09T01:36:19;4.18;;;4.16;;
2710;SDS011;20721;47.402;8.550;2022-09-09T01:37:16;3.95;;;3.95;;
2710;SDS011;20721;47.402;8.550;2022-09-09T01:38:15;4.10;;;4.10;;
2710;SDS011;20721;47.402;8.550;2022-09-09T01:39:13;4.17;;;4.16;;
2710;SDS011;20721;47.402;8.550;2022-09-09T01:40:13;3.63;;;3.63;;
2710;SDS011;20721;47.402;8.550;2022-09-09T01:41:14;4.88;;;4.88;;
2710;SDS011;20721;47.402;8.550;2022-09-09T01:42:15;4.08;;;4.08;;
2710;SDS011;20721;47.402;8.550;2022-09-09T01:43:13;4.88;;;4.88;;
2710;SDS011;20721;47.402;8.550;2022-09-09T01:44:15;3.83;;;3.83;;
2710;SDS011;20721;47.402;8.550;2022-09-09T01:45:14;4.45;;;4.44;;
2710;SDS011;20721;47.402;8.550;2022-09-09T01:46:13;4.53;;;4.53;;
2710;SDS011;20721;47.402;8.550;2022-09-09T01:47:14;3.97;;;3.96;;
2710;SDS011;20721;47.402;8.550;2022-09-09T01:48:13;4.13;;;4.13;;
2710;SDS011;20721;47.402;8.550;2022-09-09T01:49:15;4.06;;;4.06;;
2710;SDS011;20721;47.402;8.550;2022-09-09T01:50:15;4.58;;;4.58;;
2710;SDS011;20721;47.402;8.550;2022-09-09T01:51:13;3.61;;;3.61;;
2710;SDS011;20721;47.402;8.550;2022-09-09T01:52:13;3.56;;;3.56;;
2710;SDS011;20721;47.402;8.550;2022-09-09T01:53:13;3.71;;;3.71;;
2710;SDS011;20721;47.402;8.550;2022-09-09T01:54:13;3.77;;;3.77;;
2710;SDS011;20721;47.402;8.550;2022-09-09T01:55:14;3.87;;;3.87;;
2710;SDS011;20721;47.402;8.550;2022-09-09T01:56:31;4.31;;;4.31;;
2710;SDS011;20721;47.402;8.550;2022-09-09T01:57:19;4.04;;;4.04;;
2710;SDS011;20721;47.402;8.550;2022-09-09T02:00:18;3.46;;;3.46;;
2710;SDS011;20721;47.402;8.550;2022-09-09T02:05:17;3.91;;;3.91;;
2710;SDS011;20721;47.402;8.550;2022-09-09T02:06:25;3.62;;;3.62;;
2710;SDS011;20721;47.402;8.550;2022-09-09T02:07:21;4.03;;;4.03;;
2710;SDS011;20721;47.402;8.550;2022-09-09T02:08:21;3.31;;;3.31;;
2710;SDS011;20721;47.402;8.550;2022-09-09T02:09:15;4.13;;;4.13;;
2710;SDS011;20721;47.402;8.550;2022-09-09T02:10:25;3.74;;;3.74;;
2710;SDS011;20721;47.402;8.550;2022-09-09T02:11:23;3.41;;;3.41;;
2710;SDS011;20721;47.402;8.550;2022-09-09T02:12:20;4.07;;;4.07;;
2710;SDS011;20721;47.402;8.550;2022-09-09T02:13:19;4.04;;;4.04;;
2710;SDS011;20721;47.402;8.550;2022-09-09T02:14:21;3.79;;;3.79;;
2710;SDS011;20721;47.402;8.550;2022-09-09T02:15:26;3.70;;;3.70;;
2710;SDS011;20721;47.402;8.550;2022-09-09T02:17:19;3.76;;;3.76;;
2710;SDS011;20721;47.402;8.550;2022-09-09T02:18:24;3.70;;;3.70;;
2710;SDS011;20721;47.402;8.550;2022-09-09T02:19:22;3.84;;;3.84;;
2710;SDS011;20721;47.402;8.550;2022-09-09T02:20:16;4.03;;;4.03;;
2710;SDS011;20721;47.402;8.550;2022-09-09T02:21:15;3.54;;;3.54;;
2710;SDS011;20721;47.402;8.550;2022-09-09T02:22:14;3.44;;;3.43;;
2710;SDS011;20721;47.402;8.550;2022-09-09T02:23:15;3.98;;;3.97;;
2710;SDS011;20721;47.402;8.550;2022-09-09T02:25:14;3.77;;;3.77;;
2710;SDS011;20721;47.402;8.550;2022-09-09T02:26:14;3.95;;;3.95;;
2710;SDS011;20721;47.402;8.550;2022-09-09T02:27:16;4.17;;;4.17;;
2710;SDS011;20721;47.402;8.550;2022-09-09T02:29:19;4.15;;;4.15;;
2710;SDS011;20721;47.402;8.550;2022-09-09T02:30:14;3.52;;;3.51;;
2710;SDS011;20721;47.402;8.550;2022-09-09T02:31:14;3.61;;;3.61;;
2710;SDS011;20721;47.402;8.550;2022-09-09T02:32:19;3.15;;;3.15;;
2710;SDS011;20721;47.402;8.550;2022-09-09T02:33:15;3.70;;;3.70;;
2710;SDS011;20721;47.402;8.550;2022-09-09T02:34:15;3.32;;;3.31;;
2710;SDS011;20721;47.402;8.550;2022-09-09T02:35:18;3.97;;;3.97;;
2710;SDS011;20721;47.402;8.550;2022-09-09T02:36:15;3.40;;;3.40;;
2710;SDS011;20721;47.402;8.550;2022-09-09T02:37:15;3.33;;;3.33;;
2710;SDS011;20721;47.402;8.550;2022-09-09T02:38:15;3.67;;;3.67;;
2710;SDS011;20721;47.402;8.550;2022-09-09T02:39:15;3.73;;;3.73;;
2710;SDS011;20721;47.402;8.550;2022-09-09T02:40:15;3.51;;;3.51;;
2710;SDS011;20721;47.402;8.550;2022-09-09T02:41:14;3.72;;;3.72;;
2710;SDS011;20721;47.402;8.550;2022-09-09T02:42:14;4.29;;;4.29;;
2710;SDS011;20721;47.402;8.550;2022-09-09T02:43:14;3.66;;;3.66;;
2710;SDS011;20721;47.402;8.550;2022-09-09T02:44:23;3.59;;;3.59;;
2710;SDS011;20721;47.402;8.550;2022-09-09T02:45:15;3.58;;;3.58;;
2710;SDS011;20721;47.402;8.550;2022-09-09T02:47:25;3.33;;;3.32;;
2710;SDS011;20721;47.402;8.550;2022-09-09T02:48:26;3.92;;;3.91;;
2710;SDS011;20721;47.402;8.550;2022-09-09T02:49:21;3.12;;;3.12;;
2710;SDS011;20721;47.402;8.550;2022-09-09T02:51:23;3.93;;;3.93;;
2710;SDS011;20721;47.402;8.550;2022-09-09T02:53:17;3.55;;;3.55;;
2710;SDS011;20721;47.402;8.550;2022-09-09T02:56:17;3.84;;;3.84;;
2710;SDS011;20721;47.402;8.550;2022-09-09T02:57:25;3.12;;;3.12;;
2710;SDS011;20721;47.402;8.550;2022-09-09T02:58:16;3.63;;;3.63;;
2710;SDS011;20721;47.402;8.550;2022-09-09T02:59:14;3.58;;;3.58;;
2710;SDS011;20721;47.402;8.550;2022-09-09T03:01:13;3.48;;;3.48;;
2710;SDS011;20721;47.402;8.550;2022-09-09T03:03:14;3.07;;;3.07;;
2710;SDS011;20721;47.402;8.550;2022-09-09T03:06:13;3.34;;;3.34;;
2710;SDS011;20721;47.402;8.550;2022-09-09T03:09:13;3.19;;;3.19;;
2710;SDS011;20721;47.402;8.550;2022-09-09T03:10:14;2.96;;;2.96;;
2710;SDS011;20721;47.402;8.550;2022-09-09T03:12:14;2.99;;;2.99;;
2710;SDS011;20721;47.402;8.550;2022-09-09T03:13:15;3.20;;;3.20;;
2710;SDS011;20721;47.402;8.550;2022-09-09T03:14:13;3.69;;;3.69;;
2710;SDS011;20721;47.402;8.550;2022-09-09T03:15:13;3.29;;;3.29;;
2710;SDS011;20721;47.402;8.550;2022-09-09T03:16:14;2.90;;;2.90;;
2710;SDS011;20721;47.402;8.550;2022-09-09T03:17:14;3.05;;;3.05;;
2710;SDS011;20721;47.402;8.550;2022-09-09T03:18:13;3.17;;;3.17;;
2710;SDS011;20721;47.402;8.550;2022-09-09T03:19:13;2.95;;;2.95;;
2710;SDS011;20721;47.402;8.550;2022-09-09T03:20:14;2.90;;;2.90;;
2710;SDS011;20721;47.402;8.550;2022-09-09T03:21:13;2.84;;;2.84;;
2710;SDS011;20721;47.402;8.550;2022-09-09T03:22:14;2.78;;;2.77;;
2710;SDS011;20721;47.402;8.550;2022-09-09T03:23:14;3.04;;;3.04;;
2710;SDS011;20721;47.402;8.550;2022-09-09T03:24:13;3.06;;;3.06;;
2710;SDS011;20721;47.402;8.550;2022-09-09T03:25:13;2.52;;;2.52;;
2710;SDS011;20721;47.402;8.550;2022-09-09T03:26:13;2.93;;;2.93;;
2710;SDS011;20721;47.402;8.550;2022-09-09T03:27:13;2.66;;;2.66;;
2710;SDS011;20721;47.402;8.550;2022-09-09T03:28:13;1.91;;;1.91;;
2710;SDS011;20721;47.402;8.550;2022-09-09T03:29:17;2.81;;;2.81;;
2710;SDS011;20721;47.402;8.550;2022-09-09T03:30:14;2.90;;;2.90;;
2710;SDS011;20721;47.402;8.550;2022-09-09T03:31:15;3.08;;;3.08;;
2710;SDS011;20721;47.402;8.550;2022-09-09T03:33:13;2.42;;;2.42;;
2710;SDS011;20721;47.402;8.550;2022-09-09T03:34:13;2.88;;;2.88;;
2710;SDS011;20721;47.402;8.550;2022-09-09T03:35:15;2.56;;;2.56;;
2710;SDS011;20721;47.402;8.550;2022-09-09T03:36:14;2.68;;;2.68;;
2710;SDS011;20721;47.402;8.550;2022-09-09T03:40:14;2.37;;;2.37;;
2710;SDS011;20721;47.402;8.550;2022-09-09T03:41:15;2.08;;;2.08;;
2710;SDS011;20721;47.402;8.550;2022-09-09T03:42:14;2.33;;;2.33;;
2710;SDS011;20721;47.402;8.550;2022-09-09T03:45:14;2.14;;;2.14;;
2710;SDS011;20721;47.402;8.550;2022-09-09T03:47:13;1.99;;;1.99;;
2710;SDS011;20721;47.402;8.550;2022-09-09T03:48:15;2.08;;;2.08;;
2710;SDS011;20721;47.402;8.550;2022-09-09T03:49:14;2.22;;;2.22;;
2710;SDS011;20721;47.402;8.550;2022-09-09T03:50:15;2.37;;;2.37;;
2710;SDS011;20721;47.402;8.550;2022-09-09T03:51:13;1.96;;;1.96;;
2710;SDS011;20721;47.402;8.550;2022-09-09T03:52:14;2.19;;;2.19;;
2710;SDS011;20721;47.402;8.550;2022-09-09T03:53:14;2.20;;;2.20;;
2710;SDS011;20721;47.402;8.550;2022-09-09T03:54:15;2.06;;;2.06;;
2710;SDS011;20721;47.402;8.550;2022-09-09T03:55:14;1.66;;;1.66;;
2710;SDS011;20721;47.402;8.550;2022-09-09T03:57:14;1.59;;;1.59;;
2710;SDS011;20721;47.402;8.550;2022-09-09T03:58:14;1.50;;;1.50;;
2710;SDS011;20721;47.402;8.550;2022-09-09T03:59:14;1.59;;;1.59;;
2710;SDS011;20721;47.402;8.550;2022-09-09T04:00:16;1.19;;;1.19;;
2710;SDS011;20721;47.402;8.550;2022-09-09T04:01:15;1.35;;;1.35;;
2710;SDS011;20721;47.402;8.550;2022-09-09T04:02:14;1.41;;;1.41;;
2710;SDS011;20721;47.402;8.550;2022-09-09T04:03:13;1.21;;;1.21;;
2710;SDS011;20721;47.402;8.550;2022-09-09T04:04:13;1.56;;;1.56;;
2710;SDS011;20721;47.402;8.550;2022-09-09T04:05:14;1.48;;;1.48;;
2710;SDS011;20721;47.402;8.550;2022-09-09T04:08:13;1.32;;;1.32;;
2710;SDS011;20721;47.402;8.550;2022-09-09T04:09:14;1.26;;;1.26;;
2710;SDS011;20721;47.402;8.550;2022-09-09T04:11:15;1.41;;;1.41;;
2710;SDS011;20721;47.402;8.550;2022-09-09T04:12:15;1.02;;;1.02;;
2710;SDS011;20721;47.402;8.550;2022-09-09T04:13:15;1.63;;;1.63;;
2710;SDS011;20721;47.402;8.550;2022-09-09T04:14:16;1.22;;;1.22;;
2710;SDS011;20721;47.402;8.550;2022-09-09T04:15:14;1.43;;;1.43;;
2710;SDS011;20721;47.402;8.550;2022-09-09T04:17:16;1.02;;;1.02;;
2710;SDS011;20721;47.402;8.550;2022-09-09T04:18:13;1.22;;;1.22;;
2710;SDS011;20721;47.402;8.550;2022-09-09T04:20:14;1.25;;;1.25;;
2710;SDS011;20721;47.402;8.550;2022-09-09T04:21:15;1.03;;;1.03;;
2710;SDS011;20721;47.402;8.550;2022-09-09T04:23:14;1.01;;;1.01;;
2710;SDS011;20721;47.402;8.550;2022-09-09T04:24:13;1.32;;;1.32;;
2710;SDS011;20721;47.402;8.550;2022-09-09T04:25:14;1.17;;;1.17;;
2710;SDS011;20721;47.402;8.550;2022-09-09T04:28:14;1.60;;;1.60;;
2710;SDS011;20721;47.402;8.550;2022-09-09T04:29:14;1.46;;;1.46;;
2710;SDS011;20721;47.402;8.550;2022-09-09T04:31:18;1.42;;;1.42;;
2710;SDS011;20721;47.402;8.550;2022-09-09T04:32:14;1.43;;;1.43;;
2710;SDS011;20721;47.402;8.550;2022-09-09T04:33:14;1.41;;;1.41;;
2710;SDS011;20721;47.402;8.550;2022-09-09T04:35:13;1.37;;;1.37;;
2710;SDS011;20721;47.402;8.550;2022-09-09T04:36:13;1.47;;;1.47;;
2710;SDS011;20721;47.402;8.550;2022-09-09T04:37:13;1.28;;;1.28;;
2710;SDS011;20721;47.402;8.550;2022-09-09T04:38:15;1.14;;;1.14;;
2710;SDS011;20721;47.402;8.550;2022-09-09T04:39:13;1.43;;;1.43;;
2710;SDS011;20721;47.402;8.550;2022-09-09T04:40:15;1.38;;;1.38;;
2710;SDS011;20721;47.402;8.550;2022-09-09T04:41:14;1.11;;;1.11;;
2710;SDS011;20721;47.402;8.550;2022-09-09T04:42:13;1.39;;;1.39;;
2710;SDS011;20721;47.402;8.550;2022-09-09T04:44:13;1.41;;;1.41;;
2710;SDS011;20721;47.402;8.550;2022-09-09T04:45:14;1.44;;;1.44;;
2710;SDS011;20721;47.402;8.550;2022-09-09T04:46:14;1.27;;;1.27;;
2710;SDS011;20721;47.402;8.550;2022-09-09T04:47:13;1.57;;;1.57;;
2710;SDS011;20721;47.402;8.550;2022-09-09T04:50:15;1.36;;;1.36;;
2710;SDS011;20721;47.402;8.550;2022-09-09T04:51:15;1.89;;;1.89;;
2710;SDS011;20721;47.402;8.550;2022-09-09T04:52:13;2.18;;;2.18;;
2710;SDS011;20721;47.402;8.550;2022-09-09T04:53:14;2.44;;;2.44;;
2710;SDS011;20721;47.402;8.550;2022-09-09T04:54:13;2.19;;;2.16;;
2710;SDS011;20721;47.402;8.550;2022-09-09T04:55:14;1.80;;;1.77;;
2710;SDS011;20721;47.402;8.550;2022-09-09T04:56:16;1.93;;;1.90;;
2710;SDS011;20721;47.402;8.550;2022-09-09T04:57:13;1.40;;;1.38;;
2710;SDS011;20721;47.402;8.550;2022-09-09T04:58:15;1.56;;;1.56;;
2710;SDS011;20721;47.402;8.550;2022-09-09T04:59:15;1.68;;;1.68;;
2710;SDS011;20721;47.402;8.550;2022-09-09T05:00:15;1.60;;;1.60;;
2710;SDS011;20721;47.402;8.550;2022-09-09T05:02:14;1.71;;;1.71;;
2710;SDS011;20721;47.402;8.550;2022-09-09T05:03:15;1.64;;;1.64;;
2710;SDS011;20721;47.402;8.550;2022-09-09T05:04:14;1.24;;;1.24;;
2710;SDS011;20721;47.402;8.550;2022-09-09T05:05:14;1.40;;;1.40;;
2710;SDS011;20721;47.402;8.550;2022-09-09T05:06:16;1.15;;;1.15;;
2710;SDS011;20721;47.402;8.550;2022-09-09T05:08:15;1.58;;;1.58;;
2710;SDS011;20721;47.402;8.550;2022-09-09T05:09:13;1.67;;;1.67;;
2710;SDS011;20721;47.402;8.550;2022-09-09T05:10:15;1.27;;;1.27;;
2710;SDS011;20721;47.402;8.550;2022-09-09T05:11:23;1.04;;;1.04;;
2710;SDS011;20721;47.402;8.550;2022-09-09T05:12:14;1.29;;;1.29;;
2710;SDS011;20721;47.402;8.550;2022-09-09T05:13:14;1.58;;;1.58;;
2710;SDS011;20721;47.402;8.550;2022-09-09T05:14:14;1.63;;;1.63;;
2710;SDS011;20721;47.402;8.550;2022-09-09T05:15:14;1.57;;;1.57;;
2710;SDS011;20721;47.402;8.550;2022-09-09T05:16:14;1.62;;;1.62;;
2710;SDS011;20721;47.402;8.550;2022-09-09T05:17:13;1.48;;;1.48;;
2710;SDS011;20721;47.402;8.550;2022-09-09T05:18:14;1.76;;;1.76;;
2710;SDS011;20721;47.402;8.550;2022-09-09T05:19:14;1.56;;;1.56;;
2710;SDS011;20721;47.402;8.550;2022-09-09T05:20:20;1.87;;;1.87;;
2710;SDS011;20721;47.402;8.550;2022-09-09T05:21:14;1.49;;;1.49;;
2710;SDS011;20721;47.402;8.550;2022-09-09T05:22:18;1.28;;;1.28;;
2710;SDS011;20721;47.402;8.550;2022-09-09T05:23:14;2.08;;;2.08;;
2710;SDS011;20721;47.402;8.550;2022-09-09T05:24:14;1.66;;;1.66;;
2710;SDS011;20721;47.402;8.550;2022-09-09T05:25:14;1.42;;;1.42;;
2710;SDS011;20721;47.402;8.550;2022-09-09T05:26:16;1.30;;;1.30;;
2710;SDS011;20721;47.402;8.550;2022-09-09T05:27:16;1.46;;;1.46;;
2710;SDS011;20721;47.402;8.550;2022-09-09T05:28:13;1.69;;;1.69;;
2710;SDS011;20721;47.402;8.550;2022-09-09T05:29:14;1.64;;;1.64;;
2710;SDS011;20721;47.402;8.550;2022-09-09T05:30:14;1.27;;;1.27;;
2710;SDS011;20721;47.402;8.550;2022-09-09T05:31:16;2.38;;;2.38;;
2710;SDS011;20721;47.402;8.550;2022-09-09T05:32:14;1.33;;;1.33;;
2710;SDS011;20721;47.402;8.550;2022-09-09T05:33:13;1.90;;;1.90;;
2710;SDS011;20721;47.402;8.550;2022-09-09T05:34:14;1.80;;;1.80;;
2710;SDS011;20721;47.402;8.550;2022-09-09T05:35:14;2.45;;;2.45;;
2710;SDS011;20721;47.402;8.550;2022-09-09T05:36:17;2.95;;;2.95;;
2710;SDS011;20721;47.402;8.550;2022-09-09T05:37:15;2.15;;;2.15;;
2710;SDS011;20721;47.402;8.550;2022-09-09T05:38:14;1.85;;;1.85;;
2710;SDS011;20721;47.402;8.550;2022-09-09T05:39:14;1.59;;;1.59;;
2710;SDS011;20721;47.402;8.550;2022-09-09T05:40:14;1.76;;;1.76;;
2710;SDS011;20721;47.402;8.550;2022-09-09T05:41:14;1.59;;;1.59;;
2710;SDS011;20721;47.402;8.550;2022-09-09T05:42:14;2.91;;;2.91;;
2710;SDS011;20721;47.402;8.550;2022-09-09T05:43:13;2.86;;;2.86;;
2710;SDS011;20721;47.402;8.550;2022-09-09T05:44:14;1.67;;;1.67;;
2710;SDS011;20721;47.402;8.550;2022-09-09T05:45:14;1.70;;;1.70;;
2710;SDS011;20721;47.402;8.550;2022-09-09T05:46:17;1.62;;;1.62;;
2710;SDS011;20721;47.402;8.550;2022-09-09T05:47:14;1.54;;;1.54;;
2710;SDS011;20721;47.402;8.550;2022-09-09T05:48:14;1.74;;;1.74;;
2710;SDS011;20721;47.402;8.550;2022-09-09T05:49:15;1.99;;;1.99;;
2710;SDS011;20721;47.402;8.550;2022-09-09T05:50:14;1.90;;;1.90;;
2710;SDS011;20721;47.402;8.550;2022-09-09T05:51:16;1.86;;;1.86;;
2710;SDS011;20721;47.402;8.550;2022-09-09T05:52:14;1.47;;;1.47;;
2710;SDS011;20721;47.402;8.550;2022-09-09T05:53:14;1.89;;;1.89;;
2710;SDS011;20721;47.402;8.550;2022-09-09T05:54:14;1.41;;;1.41;;
2710;SDS011;20721;47.402;8.550;2022-09-09T05:55:15;1.44;;;1.44;;
2710;SDS011;20721;47.402;8.550;2022-09-09T05:56:15;1.30;;;1.30;;
2710;SDS011;20721;47.402;8.550;2022-09-09T05:57:16;1.93;;;1.93;;
2710;SDS011;20721;47.402;8.550;2022-09-09T05:58:14;1.80;;;1.80;;
2710;SDS011;20721;47.402;8.550;2022-09-09T05:59:14;1.94;;;1.94;;
2710;SDS011;20721;47.402;8.550;2022-09-09T06:00:14;1.54;;;1.54;;
2710;SDS011;20721;47.402;8.550;2022-09-09T06:01:18;1.98;;;1.98;;
2710;SDS011;20721;47.402;8.550;2022-09-09T06:02:14;1.41;;;1.41;;
2710;SDS011;20721;47.402;8.550;2022-09-09T06:03:16;1.51;;;1.51;;
2710;SDS011;20721;47.402;8.550;2022-09-09T06:04:14;1.43;;;1.43;;
2710;SDS011;20721;47.402;8.550;2022-09-09T06:05:14;1.47;;;1.47;;
2710;SDS011;20721;47.402;8.550;2022-09-09T06:06:22;1.45;;;1.45;;
2710;SDS011;20721;47.402;8.550;2022-09-09T06:07:14;1.41;;;1.41;;
2710;SDS011;20721;47.402;8.550;2022-09-09T06:08:14;1.58;;;1.58;;
2710;SDS011;20721;47.402;8.550;2022-09-09T06:09:17;1.57;;;1.57;;
2710;SDS011;20721;47.402;8.550;2022-09-09T06:10:14;1.56;;;1.56;;
2710;SDS011;20721;47.402;8.550;2022-09-09T06:11:16;1.84;;;1.84;;
2710;SDS011;20721;47.402;8.550;2022-09-09T06:13:14;1.60;;;1.60;;
2710;SDS011;20721;47.402;8.550;2022-09-09T06:14:14;1.35;;;1.35;;
2710;SDS011;20721;47.402;8.550;2022-09-09T06:15:14;1.74;;;1.74;;
2710;SDS011;20721;47.402;8.550;2022-09-09T06:19:14;1.17;;;1.17;;
2710;SDS011;20721;47.402;8.550;2022-09-09T06:20:14;1.58;;;1.58;;
2710;SDS011;20721;47.402;8.550;2022-09-09T06:21:16;1.37;;;1.37;;
2710;SDS011;20721;47.402;8.550;2022-09-09T06:22:14;1.50;;;1.50;;
2710;SDS011;20721;47.402;8.550;2022-09-09T06:23:14;1.30;;;1.30;;
2710;SDS011;20721;47.402;8.550;2022-09-09T06:24:14;1.57;;;1.57;;
2710;SDS011;20721;47.402;8.550;2022-09-09T06:25:14;1.24;;;1.24;;
2710;SDS011;20721;47.402;8.550;2022-09-09T06:27:15;1.33;;;1.33;;
2710;SDS011;20721;47.402;8.550;2022-09-09T06:28:14;1.46;;;1.46;;
2710;SDS011;20721;47.402;8.550;2022-09-09T06:29:14;1.71;;;1.71;;
2710;SDS011;20721;47.402;8.550;2022-09-09T06:30:14;1.24;;;1.24;;
2710;SDS011;20721;47.402;8.550;2022-09-09T06:31:16;1.13;;;1.13;;
2710;SDS011;20721;47.402;8.550;2022-09-09T06:32:14;1.37;;;1.37;;
2710;SDS011;20721;47.402;8.550;2022-09-09T06:33:14;1.41;;;1.41;;
2710;SDS011;20721;47.402;8.550;2022-09-09T06:34:18;1.37;;;1.37;;
2710;SDS011;20721;47.402;8.550;2022-09-09T06:35:14;1.33;;;1.33;;
2710;SDS011;20721;47.402;8.550;2022-09-09T06:36:15;1.42;;;1.42;;
2710;SDS011;20721;47.402;8.550;2022-09-09T06:37:14;1.42;;;1.42;;
2710;SDS011;20721;47.402;8.550;2022-09-09T06:38:14;1.35;;;1.35;;
2710;SDS011;20721;47.402;8.550;2022-09-09T06:39:14;1.28;;;1.28;;
2710;SDS011;20721;47.402;8.550;2022-09-09T06:40:16;1.29;;;1.29;;
2710;SDS011;20721;47.402;8.550;2022-09-09T06:41:16;1.69;;;1.69;;
2710;SDS011;20721;47.402;8.550;2022-09-09T06:42:14;1.53;;;1.53;;
2710;SDS011;20721;47.402;8.550;2022-09-09T06:43:14;1.69;;;1.69;;
2710;SDS011;20721;47.402;8.550;2022-09-09T06:44:14;1.20;;;1.20;;
2710;SDS011;20721;47.402;8.550;2022-09-09T06:47:14;1.42;;;1.42;;
2710;SDS011;20721;47.402;8.550;2022-09-09T06:48:14;1.51;;;1.51;;
2710;SDS011;20721;47.402;8.550;2022-09-09T06:49:14;0.96;;;0.96;;
2710;SDS011;20721;47.402;8.550;2022-09-09T06:50:15;1.09;;;1.09;;
2710;SDS011;20721;47.402;8.550;2022-09-09T06:51:16;1.45;;;1.45;;
2710;SDS011;20721;47.402;8.550;2022-09-09T06:52:14;1.28;;;1.28;;
2710;SDS011;20721;47.402;8.550;2022-09-09T06:53:15;1.53;;;1.53;;
2710;SDS011;20721;47.402;8.550;2022-09-09T06:54:14;1.06;;;1.06;;
2710;SDS011;20721;47.402;8.550;2022-09-09T06:55:14;0.95;;;0.95;;
2710;SDS011;20721;47.402;8.550;2022-09-09T06:57:24;1.50;;;1.50;;
2710;SDS011;20721;47.402;8.550;2022-09-09T06:58:17;1.53;;;1.53;;
2710;SDS011;20721;47.402;8.550;2022-09-09T06:59:15;1.50;;;1.50;;
2710;SDS011;20721;47.402;8.550;2022-09-09T07:00:14;1.51;;;1.51;;
2710;SDS011;20721;47.402;8.550;2022-09-09T07:01:17;1.17;;;1.17;;
2710;SDS011;20721;47.402;8.550;2022-09-09T07:02:14;1.52;;;1.52;;
2710;SDS011;20721;47.402;8.550;2022-09-09T07:03:14;1.26;;;1.26;;
2710;SDS011;20721;47.402;8.550;2022-09-09T07:04:14;1.26;;;1.26;;
2710;SDS011;20721;47.402;8.550;2022-09-09T07:05:14;1.14;;;1.14;;
2710;SDS011;20721;47.402;8.550;2022-09-09T07:06:15;1.23;;;1.23;;
2710;SDS011;20721;47.402;8.550;2022-09-09T07:07:14;1.44;;;1.44;;
2710;SDS011;20721;47.402;8.550;2022-09-09T07:08:14;1.40;;;1.40;;
2710;SDS011;20721;47.402;8.550;2022-09-09T07:09:15;5.89;;;5.89;;
2710;SDS011;20721;47.402;8.550;2022-09-09T07:10:14;1.38;;;1.38;;
2710;SDS011;20721;47.402;8.550;2022-09-09T07:11:23;1.56;;;1.56;;
2710;SDS011;20721;47.402;8.550;2022-09-09T07:12:14;1.22;;;1.22;;
2710;SDS011;20721;47.402;8.550;2022-09-09T07:13:14;1.42;;;1.42;;
2710;SDS011;20721;47.402;8.550;2022-09-09T07:15:15;1.28;;;1.28;;
2710;SDS011;20721;47.402;8.550;2022-09-09T07:16:16;1.12;;;1.12;;
2710;SDS011;20721;47.402;8.550;2022-09-09T07:17:16;1.19;;;1.19;;
2710;SDS011;20721;47.402;8.550;2022-09-09T07:19:14;1.23;;;1.23;;
2710;SDS011;20721;47.402;8.550;2022-09-09T07:20:14;1.26;;;1.26;;
2710;SDS011;20721;47.402;8.550;2022-09-09T07:21:14;1.33;;;1.33;;
2710;SDS011;20721;47.402;8.550;2022-09-09T07:22:16;1.16;;;1.16;;
2710;SDS011;20721;47.402;8.550;2022-09-09T07:24:17;1.46;;;1.46;;
2710;SDS011;20721;47.402;8.550;2022-09-09T07:25:14;1.47;;;1.47;;
2710;SDS011;20721;47.402;8.550;2022-09-09T07:26:25;1.41;;;1.41;;
2710;SDS011;20721;47.402;8.550;2022-09-09T07:27:15;1.72;;;1.72;;
2710;SDS011;20721;47.402;8.550;2022-09-09T07:28:14;1.64;;;1.64;;
2710;SDS011;20721;47.402;8.550;2022-09-09T07:29:14;1.22;;;1.22;;
2710;SDS011;20721;47.402;8.550;2022-09-09T07:30:14;1.65;;;1.65;;
2710;SDS011;20721;47.402;8.550;2022-09-09T07:31:16;1.35;;;1.35;;
2710;SDS011;20721;47.402;8.550;2022-09-09T07:32:14;2.08;;;2.08;;
2710;SDS011;20721;47.402;8.550;2022-09-09T07:33:14;1.65;;;1.65;;
2710;SDS011;20721;47.402;8.550;2022-09-09T07:34:14;1.03;;;1.03;;
2710;SDS011;20721;47.402;8.550;2022-09-09T07:35:14;1.20;;;1.20;;
2710;SDS011;20721;47.402;8.550;2022-09-09T07:37:14;1.23;;;1.23;;
2710;SDS011;20721;47.402;8.550;2022-09-09T07:38:16;1.11;;;1.11;;
2710;SDS011;20721;47.402;8.550;2022-09-09T07:39:17;1.36;;;1.36;;
2710;SDS011;20721;47.402;8.550;2022-09-09T07:40:15;1.26;;;1.26;;
2710;SDS011;20721;47.402;8.550;2022-09-09T07:41:19;1.11;;;1.11;;
2710;SDS011;20721;47.402;8.550;2022-09-09T07:42:15;0.89;;;0.89;;
2710;SDS011;20721;47.402;8.550;2022-09-09T07:43:14;1.00;;;1.00;;
2710;SDS011;20721;47.402;8.550;2022-09-09T07:44:19;0.96;;;0.96;;